Time;durP1;ratioP1;P1;durP2;ratioP2;P2;SDS_P1;SDS_P2;PMS_P1;PMS_P2;Temp;Humidity;BMP_temperature;BMP_pressure;BME280_temperature;BME280_humidity;BME280_pressure;Samples;Min_cycle;Max_cycle;Signal;HPM_P1;HPM_P2
2022/10/25 00:00:28;;;;;;;;;;;;;;;;;;4977415;28;19917;-72
2022/10/25 00:02:54;;;;;;;;;;;;;;;;;;4977256;28;20333;-72
2022/10/25 00:05:20;;;;;;;;;;;;;;;;;;4994179;28;19918;-71
2022/10/25 00:07:46;;;;;;;;;;;;;;;;;;4977323;28;19966;-71
2022/10/25 00:10:12;;;;;;;;;;;;;;;;;;4977255;28;20311;-72
2022/10/25 00:12:38;;;;;;;;;;;;;;;;;;4977643;28;19965;-72
2022/10/25 00:15:04;;;;;;;;;;;;;;;;;;4976255;28;19921;-72
2022/10/25 00:17:29;;;;;;;;;;;;;;;;;;4993106;28;19922;-72
2022/10/25 00:19:55;;;;;;;;;;;;;;;;;;4977119;28;20009;-72
2022/10/25 00:22:21;;;;;;;;;;;;;;;;;;4977060;28;19917;-72
2022/10/25 00:24:47;;;;;;;;;;;;;;;;;;4974671;28;19969;-72
2022/10/25 00:27:13;;;;;;;;;;;;;;;;;;4977001;28;20380;-72
2022/10/25 00:29:40;;;;;;;;;;;;;;;;;;4977784;28;20020;-72
2022/10/25 00:32:05;;;;;;;;;;;;;;;;;;4976773;28;20392;-72
2022/10/25 00:34:31;;;;;;;;;;;;;;;;;;4976130;28;19924;-72
2022/10/25 00:36:57;;;;;;;;;;;;;;;;;;4994422;28;19918;-72
2022/10/25 00:39:23;;;;;;;;;;;;;;;;;;4977044;28;19917;-72
2022/10/25 00:41:49;;;;;;;;;;;;;;;;;;4976581;28;19929;-72
2022/10/25 00:44:15;;;;;;;;;;;;;;;;;;4997990;28;20400;-72
2022/10/25 00:46:41;;;;;;;;;;;;;;;;;;4996035;28;19960;-72
2022/10/25 00:49:07;;;;;;;;;;;;;;;;;;5013692;28;19995;-71
2022/10/25 00:51:33;;;;;;;;;;;;;;;;;;4995915;28;20388;-72
2022/10/25 00:53:58;;;;;;;;;;;;;;;;;;5012820;28;19975;-71
2022/10/25 00:56:24;;;;;;;;;;;;;;;;;;4995215;28;20343;-72
2022/10/25 00:58:50;;;;;;;;;;;;;;;;;;4984920;28;19917;-72
2022/10/25 01:01:16;;;;;;;;;;;;;;;;;;4976009;28;19918;-72
2022/10/25 01:03:42;;;;;;;;;;;;;;;;;;4976195;28;20296;-72
2022/10/25 01:06:08;;;;;;;;;;;;;;;;;;4975683;28;19918;-72
2022/10/25 01:08:34;;;;;;;;;;;;;;;;;;4976718;28;19977;-72
2022/10/25 01:11:00;;;;;;;;;;;;;;;;;;4993419;28;20443;-71
2022/10/25 01:13:26;;;;;;;;;;;;;;;;;;4993351;28;19924;-72
2022/10/25 01:15:52;;;;;;;;;;;;;;;;;;4976631;28;20004;-71
2022/10/25 01:18:23;;;;;;;;;;;;;;;;;;5126915;27;1911585;-70
2022/10/25 01:20:49;;;;;;;;;;;;;;;;;;5176414;27;19920;-70
2022/10/25 01:23:14;;;;;;;;;;;;;;;;;;5150963;27;20407;-70
2022/10/25 01:25:40;;;;;;;;;;;;;;;;;;5129745;27;19924;-72
2022/10/25 01:28:06;;;;;;;;;;;;;;;;;;5132339;27;20548;-73
2022/10/25 01:30:32;;;;;;;;;;;;;;;;;;5163425;27;19919;-72
2022/10/25 01:32:58;;;;;;;;;;;;;;;;;;5153028;27;20398;-72
2022/10/25 01:35:24;;;;;;;;;;;;;;;;;;5152314;27;19984;-73
2022/10/25 01:37:50;;;;;;;;;;;;;;;;;;5145896;27;19931;-73
2022/10/25 01:40:16;;;;;;;;;;;;;;;;;;5132184;27;19919;-72
2022/10/25 01:42:42;;;;;;;;;;;;;;;;;;5151881;27;19945;-72
2022/10/25 01:45:07;;;;;;;;;;;;;;;;;;5131222;27;20402;-72
2022/10/25 01:47:34;;;;;;;;;;;;;;;;;;5131944;27;20014;-72
2022/10/25 01:50:00;;;;;;;;;;;;;;;;;;5114794;27;19920;-72
2022/10/25 01:52:26;;;;;;;;;;;;;;;;;;5150392;27;20516;-72
2022/10/25 01:54:52;;;;;;;;;;;;;;;;;;5131032;27;19962;-72
2022/10/25 01:57:18;;;;;;;;;;;;;;;;;;5159384;27;19966;-73
2022/10/25 01:59:44;;;;;;;;;;;;;;;;;;5171318;27;20005;-73
2022/10/25 02:02:10;;;;;;;;;;;;;;;;;;5152360;27;19919;-73
2022/10/25 02:04:35;;;;;;;;;;;;;;;;;;5151568;27;19971;-73
2022/10/25 02:07:01;;;;;;;;;;;;;;;;;;5170798;27;20304;-73
2022/10/25 02:09:27;;;;;;;;;;;;;;;;;;5152340;27;19927;-72
2022/10/25 02:11:53;;;;;;;;;;;;;;;;;;5152116;27;19928;-73
2022/10/25 02:14:19;;;;;;;;;;;;;;;;;;5168487;27;19919;-73
2022/10/25 02:16:45;;;;;;;;;;;;;;;;;;5151877;27;20395;-73
2022/10/25 02:19:11;;;;;;;;;;;;;;;;;;5152227;27;19926;-71
2022/10/25 02:21:37;;;;;;;;;;;;;;;;;;5170606;27;19923;-73
2022/10/25 02:24:03;;;;;;;;;;;;;;;;;;5149447;27;19919;-72
2022/10/25 02:26:28;;;;;;;;;;;;;;;;;;5151876;27;19926;-73
2022/10/25 02:28:54;;;;;;;;;;;;;;;;;;5143242;27;19938;-72
2022/10/25 02:31:20;;;;;;;;;;;;;;;;;;5136177;27;20422;-73
2022/10/25 02:33:46;;;;;;;;;;;;;;;;;;5155808;27;19919;-72
2022/10/25 02:36:12;;;;;;;;;;;;;;;;;;5137538;27;19923;-73
2022/10/25 02:38:38;;;;;;;;;;;;;;;;;;5156672;27;20407;-73
2022/10/25 02:41:04;;;;;;;;;;;;;;;;;;5111917;28;20403;-73
2022/10/25 02:43:30;;;;;;;;;;;;;;;;;;5114599;27;19919;-73
2022/10/25 02:45:56;;;;;;;;;;;;;;;;;;5140194;27;19920;-72
2022/10/25 02:48:21;;;;;;;;;;;;;;;;;;5124599;27;19955;-73
2022/10/25 02:50:47;;;;;;;;;;;;;;;;;;5137651;27;19922;-73
2022/10/25 02:53:13;;;;;;;;;;;;;;;;;;5137682;27;19923;-73
2022/10/25 02:55:39;;;;;;;;;;;;;;;;;;5155686;27;19926;-72
2022/10/25 02:58:05;;;;;;;;;;;;;;;;;;5137122;27;19988;-72
2022/10/25 03:00:31;;;;;;;;;;;;;;;;;;5124583;27;19962;-73
2022/10/25 03:02:57;;;;;;;;;;;;;;;;;;5117232;27;20389;-72
2022/10/25 03:05:23;;;;;;;;;;;;;;;;;;5116001;27;19926;-73
2022/10/25 03:07:49;;;;;;;;;;;;;;;;;;5135427;27;19953;-73
2022/10/25 03:10:14;;;;;;;;;;;;;;;;;;5116767;27;19919;-73
2022/10/25 03:12:40;;;;;;;;;;;;;;;;;;5116634;27;19972;-72
2022/10/25 03:15:06;;;;;;;;;;;;;;;;;;5115782;27;20325;-73
2022/10/25 03:17:32;;;;;;;;;;;;;;;;;;5134788;27;20350;-72
2022/10/25 03:19:58;;;;;;;;;;;;;;;;;;5136066;27;19923;-73
2022/10/25 03:22:24;;;;;;;;;;;;;;;;;;5116098;27;19919;-72
2022/10/25 03:24:50;;;;;;;;;;;;;;;;;;5137505;27;19972;-73
2022/10/25 03:27:16;;;;;;;;;;;;;;;;;;5116520;27;19957;-72
2022/10/25 03:29:42;;;;;;;;;;;;;;;;;;5100262;27;19944;-72
2022/10/25 03:32:08;;;;;;;;;;;;;;;;;;5099083;27;19919;-73
2022/10/25 03:34:34;;;;;;;;;;;;;;;;;;5115853;27;20308;-73
2022/10/25 03:37:00;;;;;;;;;;;;;;;;;;5135896;27;19923;-73
2022/10/25 03:39:26;;;;;;;;;;;;;;;;;;5134414;27;19920;-73
2022/10/25 03:41:52;;;;;;;;;;;;;;;;;;5115590;27;20381;-72
2022/10/25 03:44:18;;;;;;;;;;;;;;;;;;5133495;27;19919;-71
2022/10/25 03:46:43;;;;;;;;;;;;;;;;;;5116287;27;19959;-71
2022/10/25 03:49:09;;;;;;;;;;;;;;;;;;5134646;27;19963;-72
2022/10/25 03:51:35;;;;;;;;;;;;;;;;;;5134329;27;20010;-72
2022/10/25 03:54:01;;;;;;;;;;;;;;;;;;5116353;27;19919;-72
2022/10/25 03:56:27;;;;;;;;;;;;;;;;;;5123419;27;19927;-73
2022/10/25 03:58:56;;;;;;;;;;;;;;;;;;5112066;28;19923;-74
2022/10/25 04:01:22;;;;;;;;;;;;;;;;;;5126435;22;19932;-73
2022/10/25 04:03:48;;;;;;;;;;;;;;;;;;5043509;28;20572;-72
2022/10/25 04:06:14;;;;;;;;;;;;;;;;;;5034958;28;20059;-73
2022/10/25 04:08:40;;;;;;;;;;;;;;;;;;5035205;28;20010;-73
2022/10/25 04:11:06;;;;;;;;;;;;;;;;;;5062620;28;19920;-72
2022/10/25 04:13:32;;;;;;;;;;;;;;;;;;5054767;28;20420;-74
2022/10/25 04:15:57;;;;;;;;;;;;;;;;;;5069567;28;20336;-72
2022/10/25 04:18:23;;;;;;;;;;;;;;;;;;5054622;28;19978;-72
2022/10/25 04:20:49;;;;;;;;;;;;;;;;;;5043575;28;19967;-73
2022/10/25 04:23:15;;;;;;;;;;;;;;;;;;5035134;28;20510;-73
2022/10/25 04:25:41;;;;;;;;;;;;;;;;;;5054228;28;19924;-73
2022/10/25 04:28:07;;;;;;;;;;;;;;;;;;5033096;28;19972;-73
2022/10/25 04:30:33;;;;;;;;;;;;;;;;;;5051585;28;19920;-73
2022/10/25 04:32:59;;;;;;;;;;;;;;;;;;5051552;28;19920;-73
2022/10/25 04:35:25;;;;;;;;;;;;;;;;;;5054113;28;19920;-73
2022/10/25 04:37:51;;;;;;;;;;;;;;;;;;5054525;28;19936;-72
2022/10/25 04:40:17;;;;;;;;;;;;;;;;;;5055046;28;20328;-73
2022/10/25 04:42:43;;;;;;;;;;;;;;;;;;5061856;28;19927;-72
2022/10/25 04:45:09;;;;;;;;;;;;;;;;;;5074380;28;19920;-73
2022/10/25 04:47:35;;;;;;;;;;;;;;;;;;5074807;28;19927;-73
2022/10/25 04:50:01;;;;;;;;;;;;;;;;;;5057732;28;20065;-72
2022/10/25 04:52:27;;;;;;;;;;;;;;;;;;5092724;28;20045;-73
2022/10/25 04:54:53;;;;;;;;;;;;;;;;;;5073948;28;19924;-72
2022/10/25 04:57:18;;;;;;;;;;;;;;;;;;5074463;28;19924;-72
2022/10/25 04:59:44;;;;;;;;;;;;;;;;;;5054866;28;19920;-72
2022/10/25 05:02:11;;;;;;;;;;;;;;;;;;5074832;28;19927;-72
2022/10/25 05:04:37;;;;;;;;;;;;;;;;;;5073860;28;19920;-73
2022/10/25 05:07:03;;;;;;;;;;;;;;;;;;5092848;28;19926;-72
2022/10/25 05:09:28;;;;;;;;;;;;;;;;;;5074276;28;20389;-71
2022/10/25 05:11:54;;;;;;;;;;;;;;;;;;5048910;28;19924;-74
2022/10/25 05:14:20;;;;;;;;;;;;;;;;;;5047276;28;19927;-72
2022/10/25 05:16:46;;;;;;;;;;;;;;;;;;5053078;28;19993;-71
2022/10/25 05:19:12;;;;;;;;;;;;;;;;;;5053054;28;20339;-73
2022/10/25 05:21:38;;;;;;;;;;;;;;;;;;5071610;28;19946;-72
2022/10/25 05:24:04;;;;;;;;;;;;;;;;;;5035822;28;19934;-71
2022/10/25 05:26:30;;;;;;;;;;;;;;;;;;5035581;28;19986;-72
2022/10/25 05:28:56;;;;;;;;;;;;;;;;;;5035196;28;19920;-72
2022/10/25 05:31:22;;;;;;;;;;;;;;;;;;5071719;28;19920;-72
2022/10/25 05:33:48;;;;;;;;;;;;;;;;;;5071283;28;20424;-71
2022/10/25 05:36:13;;;;;;;;;;;;;;;;;;5058023;28;19938;-72
2022/10/25 05:38:39;;;;;;;;;;;;;;;;;;5041571;28;19927;-72
2022/10/25 05:41:05;;;;;;;;;;;;;;;;;;5040848;28;19999;-72
2022/10/25 05:43:31;;;;;;;;;;;;;;;;;;5055120;28;19928;-72
2022/10/25 05:45:57;;;;;;;;;;;;;;;;;;5079935;28;19920;-72
2022/10/25 05:48:23;;;;;;;;;;;;;;;;;;5057399;28;20389;-72
2022/10/25 05:50:49;;;;;;;;;;;;;;;;;;5072958;28;19986;-72
2022/10/25 05:53:15;;;;;;;;;;;;;;;;;;5079800;28;20050;-72
2022/10/25 05:55:41;;;;;;;;;;;;;;;;;;5053443;28;19924;-72
2022/10/25 05:58:07;;;;;;;;;;;;;;;;;;5054354;28;19931;-73
2022/10/25 06:00:33;;;;;;;;;;;;;;;;;;5038710;28;19920;-73
2022/10/25 06:02:58;;;;;;;;;;;;;;;;;;5035713;28;19935;-73
2022/10/25 06:05:24;;;;;;;;;;;;;;;;;;5037352;28;20399;-73
2022/10/25 06:07:50;;;;;;;;;;;;;;;;;;5049576;28;19921;-72
2022/10/25 06:10:16;;;;;;;;;;;;;;;;;;5040296;28;19928;-72
2022/10/25 06:12:42;;;;;;;;;;;;;;;;;;5067526;28;20483;-72
2022/10/25 06:15:08;;;;;;;;;;;;;;;;;;5058555;28;19924;-72
2022/10/25 06:17:34;;;;;;;;;;;;;;;;;;5072224;28;19979;-72
2022/10/25 06:20:00;;;;;;;;;;;;;;;;;;5052670;28;20449;-74
2022/10/25 06:22:26;;;;;;;;;;;;;;;;;;5063158;28;19925;-73
2022/10/25 06:24:52;;;;;;;;;;;;;;;;;;5054678;28;19935;-73
2022/10/25 06:27:18;;;;;;;;;;;;;;;;;;5037610;28;19978;-73
2022/10/25 06:29:44;;;;;;;;;;;;;;;;;;5047587;28;19932;-73
2022/10/25 06:32:10;;;;;;;;;;;;;;;;;;5070061;28;19920;-72
2022/10/25 06:34:36;;;;;;;;;;;;;;;;;;5059885;28;20344;-72
2022/10/25 06:37:01;;;;;;;;;;;;;;;;;;5052405;28;19932;-71
2022/10/25 06:39:27;;;;;;;;;;;;;;;;;;5035680;28;19973;-70
2022/10/25 06:41:53;;;;;;;;;;;;;;;;;;5063894;28;19972;-70
2022/10/25 06:44:19;;;;;;;;;;;;;;;;;;5051381;28;19927;-70
2022/10/25 06:46:45;;;;;;;;;;;;;;;;;;5039940;28;20335;-70
2022/10/25 06:49:11;;;;;;;;;;;;;;;;;;5057778;28;19950;-71
2022/10/25 06:51:37;;;;;;;;;;;;;;;;;;5074072;28;19921;-70
2022/10/25 06:54:08;;;;;;;;;;;;;;;;;;5055196;28;20299;-70
2022/10/25 06:56:34;;;;;;;;;;;;;;;;;;5075629;28;19932;-70
2022/10/25 06:59:00;;;;;;;;;;;;;;;;;;5066640;28;19920;-70
2022/10/25 07:01:26;;;;;;;;;;;;;;;;;;5054182;28;20631;-70
2022/10/25 07:03:55;;;;;;;;;;;;;;;;;;5042355;28;19924;-70
2022/10/25 07:06:21;;;;;;;;;;;;;;;;;;5074297;28;19995;-70
2022/10/25 07:08:47;;;;;;;;;;;;;;;;;;5055740;28;19921;-70
2022/10/25 07:11:13;;;;;;;;;;;;;;;;;;5054176;28;20374;-70
2022/10/25 07:13:39;;;;;;;;;;;;;;;;;;5054192;28;19928;-70
2022/10/25 07:16:05;;;;;;;;;;;;;;;;;;5056404;28;20308;-70
2022/10/25 07:18:31;;;;;;;;;;;;;;;;;;5053833;28;19964;-70
2022/10/25 07:20:56;;;;;;;;;;;;;;;;;;5054334;28;20014;-72
2022/10/25 07:23:22;;;;;;;;;;;;;;;;;;5038619;28;19927;-74
2022/10/25 07:25:48;;;;;;;;;;;;;;;;;;5051288;28;19973;-72
2022/10/25 07:28:14;;;;;;;;;;;;;;;;;;5052701;28;19920;-72
2022/10/25 07:30:40;;;;;;;;;;;;;;;;;;5053886;28;19921;-72
2022/10/25 07:33:06;;;;;;;;;;;;;;;;;;5084782;28;19920;-72
2022/10/25 07:35:32;;;;;;;;;;;;;;;;;;5073487;28;19923;-72
2022/10/25 07:37:58;;;;;;;;;;;;;;;;;;5052535;28;20310;-72
2022/10/25 07:40:24;;;;;;;;;;;;;;;;;;5074397;28;19920;-72
2022/10/25 07:42:49;;;;;;;;;;;;;;;;;;5056778;28;19958;-72
2022/10/25 07:45:15;;;;;;;;;;;;;;;;;;5072614;28;19930;-71
2022/10/25 07:47:41;;;;;;;;;;;;;;;;;;5089557;28;19920;-72
2022/10/25 07:50:07;;;;;;;;;;;;;;;;;;5097059;28;20011;-72
2022/10/25 07:52:33;;;;;;;;;;;;;;;;;;5081491;28;19999;-72
2022/10/25 07:54:59;;;;;;;;;;;;;;;;;;5076064;28;20018;-71
2022/10/25 07:57:25;;;;;;;;;;;;;;;;;;5055039;28;19928;-72
2022/10/25 07:59:51;;;;;;;;;;;;;;;;;;5069103;28;19924;-72
2022/10/25 08:02:17;;;;;;;;;;;;;;;;;;5068207;28;19989;-71
2022/10/25 08:04:43;;;;;;;;;;;;;;;;;;5074653;28;20392;-72
2022/10/25 08:07:08;;;;;;;;;;;;;;;;;;5098453;28;19920;-72
2022/10/25 08:09:34;;;;;;;;;;;;;;;;;;5075805;28;19966;-71
2022/10/25 08:12:00;;;;;;;;;;;;;;;;;;5069439;28;19942;-72
2022/10/25 08:14:26;;;;;;;;;;;;;;;;;;5070834;28;20325;-71
2022/10/25 08:16:52;;;;;;;;;;;;;;;;;;5067263;28;19935;-71
2022/10/25 08:19:18;;;;;;;;;;;;;;;;;;5067436;28;19920;-72
2022/10/25 08:21:44;;;;;;;;;;;;;;;;;;5084844;28;19928;-72
2022/10/25 08:24:10;;;;;;;;;;;;;;;;;;5086117;28;19990;-73
2022/10/25 08:26:36;;;;;;;;;;;;;;;;;;5071903;28;20665;-72
2022/10/25 08:29:02;;;;;;;;;;;;;;;;;;5065964;28;19924;-72
2022/10/25 08:31:27;;;;;;;;;;;;;;;;;;5087194;28;19959;-72
2022/10/25 08:33:53;;;;;;;;;;;;;;;;;;5051423;28;19920;-73
2022/10/25 08:36:19;;;;;;;;;;;;;;;;;;5084614;28;19920;-73
2022/10/25 08:38:45;;;;;;;;;;;;;;;;;;5068700;28;19943;-73
2022/10/25 08:41:13;;;;;;;;;;;;;;;;;;5066178;28;19981;-73
2022/10/25 08:43:39;;;;;;;;;;;;;;;;;;5085772;28;20368;-73
2022/10/25 08:46:05;;;;;;;;;;;;;;;;;;5050654;28;20002;-73
2022/10/25 08:48:31;;;;;;;;;;;;;;;;;;5085014;28;19928;-73
2022/10/25 08:50:57;;;;;;;;;;;;;;;;;;5087171;28;19924;-72
2022/10/25 08:53:23;;;;;;;;;;;;;;;;;;5091677;28;19924;-73
2022/10/25 08:55:48;;;;;;;;;;;;;;;;;;5066189;28;19941;-73
2022/10/25 08:58:14;;;;;;;;;;;;;;;;;;5051217;28;20018;-73
2022/10/25 09:00:40;;;;;;;;;;;;;;;;;;5066598;28;20413;-72
2022/10/25 09:03:06;;;;;;;;;;;;;;;;;;5064260;28;19920;-72
2022/10/25 09:05:32;;;;;;;;;;;;;;;;;;5069927;28;19920;-73
2022/10/25 09:07:58;;;;;;;;;;;;;;;;;;5067318;28;19920;-72
2022/10/25 09:10:24;;;;;;;;;;;;;;;;;;5073456;28;19928;-74
2022/10/25 09:12:50;;;;;;;;;;;;;;;;;;5053781;28;19920;-73
2022/10/25 09:15:16;;;;;;;;;;;;;;;;;;5087579;28;20300;-74
2022/10/25 09:17:42;;;;;;;;;;;;;;;;;;5051276;28;20027;-71
2022/10/25 09:20:07;;;;;;;;;;;;;;;;;;5053391;28;19920;-71
2022/10/25 09:22:33;;;;;;;;;;;;;;;;;;5089198;28;19926;-72
2022/10/25 09:24:59;;;;;;;;;;;;;;;;;;5068849;28;20273;-72
2022/10/25 09:27:25;;;;;;;;;;;;;;;;;;5066564;28;19930;-72
2022/10/25 09:29:51;;;;;;;;;;;;;;;;;;5086393;28;19931;-72
2022/10/25 09:32:17;;;;;;;;;;;;;;;;;;5051778;28;19920;-72
2022/10/25 09:34:43;;;;;;;;;;;;;;;;;;5064800;28;19966;-72
2022/10/25 09:37:09;;;;;;;;;;;;;;;;;;5070696;28;20514;-72
2022/10/25 09:39:35;;;;;;;;;;;;;;;;;;5090655;28;19920;-72
2022/10/25 09:42:00;;;;;;;;;;;;;;;;;;5091786;28;19959;-72
2022/10/25 09:44:26;;;;;;;;;;;;;;;;;;5054283;28;20275;-72
2022/10/25 09:46:52;;;;;;;;;;;;;;;;;;5077178;28;19966;-72
2022/10/25 09:49:18;;;;;;;;;;;;;;;;;;5073112;28;19920;-72
2022/10/25 09:51:44;;;;;;;;;;;;;;;;;;5086656;28;19970;-72
2022/10/25 09:54:10;;;;;;;;;;;;;;;;;;5071121;28;19973;-72
2022/10/25 09:56:36;;;;;;;;;;;;;;;;;;5089123;28;19924;-72
2022/10/25 09:59:03;;;;;;;;;;;;;;;;;;5067020;28;20399;-72
2022/10/25 10:03:58;;;;;;;;;;;;;;;;;;5107346;28;19924;-69
2022/10/25 10:06:24;;;;;;;;;;;;;;;;;;5092149;28;19919;-69
2022/10/25 10:08:50;;;;;;;;;;;;;;;;;;5105270;27;19920;-72
2022/10/25 10:11:16;;;;;;;;;;;;;;;;;;5073513;28;19920;-72
2022/10/25 10:13:42;;;;;;;;;;;;;;;;;;5054293;28;19924;-69
2022/10/25 10:16:27;;;;;;;;;;;15.30;99.90;;;;;;5049035;28;19978;-69
2022/10/25 10:19:12;;;;;;;;;;;15.30;99.90;;;;;;5057945;28;20720;-69
2022/10/25 10:21:41;;;;;;;;;;;15.20;99.90;;;;;;5072845;28;20350;-69
2022/10/25 10:24:14;;;;;;;;;;;15.60;99.90;;;;;;5089259;28;19960;-69
2022/10/25 10:26:50;;;;;;;;;;;15.20;99.90;;;;;;5065162;28;19931;-68
2022/10/25 10:29:20;;;;;;;;;;;15.30;99.90;;;;;;5059324;28;19927;-69
2022/10/25 10:31:47;;;;;;;;;;;15.20;99.90;;;;;;5056777;28;19928;-68
2022/10/25 10:34:22;;;;;;;;;;;15.20;99.90;;;;;;5062319;28;19935;-68
2022/10/25 10:36:59;;;;;;;;;;;15.30;99.90;;;;;;5061255;28;20011;-68
2022/10/25 10:39:24;;;;;;;;;;;15.30;99.90;;;;;;5067960;28;19920;-69
2022/10/25 10:42:03;;;;;;;;;;;15.50;99.90;;;;;;5040189;28;20030;-67
2022/10/25 10:44:33;;;;;;;;;;;15.70;99.90;;;;;;5067315;28;19924;-69
2022/10/25 10:46:59;;;;;;;;;;;15.70;99.90;;;;;;5060741;28;19924;-69
2022/10/25 10:49:32;;;;;;;;;;;15.40;99.90;;;;;;5060758;28;19931;-69
2022/10/25 10:51:57;;;;;;;;;;;16.10;99.90;;;;;;5056555;28;19928;-68
2022/10/25 10:54:25;;;;;;;;;;;15.70;99.90;;;;;;5065493;28;19973;-68
2022/10/25 10:56:58;;;;;;;;;;;15.60;99.90;;;;;;5062482;28;19924;-69
2022/10/25 10:59:25;;;;;;;;;;;;;;;;;;5057094;28;19956;-69
2022/10/25 11:01:52;;;;;;;;;;;;;;;;;;5058273;28;19928;-69
2022/10/25 11:04:18;;;;;;;;;;;;;;;;;;5076744;28;19920;-69
2022/10/25 11:06:43;;;;;;;;;;;15.90;99.90;;;;;;5073059;28;19921;-69
2022/10/25 11:09:19;;;;;;;;;;;;;;;;;;5057697;28;19921;-69
2022/10/25 11:11:47;;;;;;;;;;;;;;;;;;5078251;28;19928;-69
2022/10/25 11:14:13;;;;;;;;;;;;;;;;;;5065809;28;20241;-69
2022/10/25 11:16:39;;;;;;;;;;;;;;;;;;5080608;28;19967;-69
2022/10/25 11:19:05;;;;;;;;;;;;;;;;;;5055881;28;19927;-68
2022/10/25 11:21:31;;;;;;;;;;;;;;;;;;5042756;28;20325;-69
2022/10/25 11:23:57;;;;;;;;;;;;;;;;;;5060673;28;20023;-69
2022/10/25 11:26:23;;;;;;;;;;;;;;;;;;5061171;28;20712;-69
2022/10/25 11:28:49;;;;;;;;;;;;;;;;;;5087865;28;19931;-69
2022/10/25 11:31:14;;;;;;;;;;;;;;;;;;5056886;28;19963;-68
2022/10/25 11:33:40;;;;;;;;;;;;;;;;;;5064223;28;19921;-69
2022/10/25 11:36:06;;;;;;;;;;;;;;;;;;5059622;28;19969;-68
2022/10/25 11:38:32;;;;;;;;;;;;;;;;;;5042432;28;19939;-72
2022/10/25 11:40:58;;;;;;;;;;;;;;;;;;5047925;28;19920;-69
2022/10/25 11:43:24;;;;;;;;;;;;;;;;;;5047664;28;19928;-69
2022/10/25 11:45:50;;;;;;;;;;;;;;;;;;5063580;28;19970;-70
2022/10/25 11:48:16;;;;;;;;;;;;;;;;;;5105928;28;19927;-69
2022/10/25 11:50:42;;;;;;;;;;;;;;;;;;5090760;28;19919;-68
2022/10/25 11:53:09;;;;;;;;;;;;;;;;;;5059706;28;19924;-67
2022/10/25 11:55:35;;;;;;;;;;;;;;;;;;5074172;28;19943;-69
2022/10/25 11:58:00;;;;;;;;;;;;;;;;;;5075287;28;20309;-69
2022/10/25 12:00:26;;;;;;;;;;;;;;;;;;5073943;28;19920;-69
2022/10/25 12:02:52;;;;;;;;;;;;;;;;;;5055898;28;19927;-69
2022/10/25 12:05:18;;;;;;;;;;;;;;;;;;5092200;28;20275;-69
2022/10/25 12:07:44;;;;;;;;;;;;;;;;;;5093297;28;19919;-69
2022/10/25 12:10:10;;;;;;;;;;;;;;;;;;5074920;28;19954;-69
2022/10/25 12:12:36;;;;;;;;;;;;;;;;;;5071369;28;20463;-69
2022/10/25 12:15:02;;;;;;;;;;;;;;;;;;5070685;28;19955;-69
2022/10/25 12:17:27;;;;;;;;;;;;;;;;;;5056634;28;20022;-69
2022/10/25 12:19:53;;;;;;;;;;;;;;;;;;5059627;28;19935;-69
2022/10/25 12:22:19;;;;;;;;;;;;;;;;;;5048839;28;19924;-69
2022/10/25 12:24:45;;;;;;;;;;;;;;;;;;5087260;28;19920;-69
2022/10/25 12:27:12;;;;;;;;;;;;;;;;;;5092814;28;19920;-69
2022/10/25 12:29:38;;;;;;;;;;;;;;;;;;5074484;28;19947;-69
2022/10/25 12:32:03;;;;;;;;;;;;;;;;;;5057754;28;20313;-69
2022/10/25 12:34:29;;;;;;;;;;;;;;;;;;5072067;28;19927;-69
2022/10/25 12:36:55;;;;;;;;;;;;;;;;;;5074628;28;19931;-69
2022/10/25 12:39:21;;;;;;;;;;;;;;;;;;5092590;28;20377;-69
2022/10/25 12:41:47;;;;;;;;;;;;;;;;;;5092513;28;19924;-69
2022/10/25 12:44:13;;;;;;;;;;;;;;;;;;5056841;28;19934;-69
2022/10/25 12:46:39;;;;;;;;;;;;;;;;;;5074221;28;20355;-69
2022/10/25 12:49:05;;;;;;;;;;;;;;;;;;5092642;28;19920;-69
2022/10/25 12:51:31;;;;;;;;;;;;;;;;;;5044687;28;19964;-69
2022/10/25 12:53:57;;;;;;;;;;;;;;;;;;5106408;28;20341;-68
2022/10/25 12:56:23;;;;;;;;;;;;;;;;;;5112694;28;19920;-69
2022/10/25 12:58:49;;;;;;;;;;;;;;;;;;5094226;28;19931;-69
2022/10/25 13:01:16;;;;;;;;;;;;;;;;;;5077355;28;20292;-69
2022/10/25 13:03:42;;;;;;;;;;;;;;;;;;5112484;28;19924;-69
2022/10/25 13:06:08;;;;;;;;;;;;;;;;;;5093905;28;20427;-69
2022/10/25 13:08:33;;;;;;;;;;;;;;;;;;5071828;28;19971;-69
2022/10/25 13:10:59;;;;;;;;;;;;;;;;;;5070489;28;19924;-69
2022/10/25 13:13:25;;;;;;;;;;;;;;;;;;5071465;28;19921;-69
2022/10/25 13:15:51;;;;;;;;;;;;;;;;;;5071393;28;19921;-69
2022/10/25 13:18:17;;;;;;;;;;;;;;;;;;5070629;28;19924;-69
2022/10/25 13:20:43;;;;;;;;;;;;;;;;;;5083601;28;19942;-69
2022/10/25 13:23:09;;;;;;;;;;;;;;;;;;5098780;28;19920;-69
2022/10/25 13:25:35;;;;;;;;;;;;;;;;;;5072739;28;19931;-69
2022/10/25 13:28:01;;;;;;;;;;;;;;;;;;5091917;28;20394;-69
2022/10/25 13:30:27;;;;;;;;;;;;;;;;;;5073808;28;19923;-69
2022/10/25 13:32:53;;;;;;;;;;;;;;;;;;5073802;28;19920;-69
2022/10/25 13:35:19;;;;;;;;;;;;;;;;;;5055874;28;19967;-69
2022/10/25 13:37:45;;;;;;;;;;;;;;;;;;5109444;28;19925;-70
2022/10/25 13:40:11;;;;;;;;;;;;;;;;;;5094150;28;20035;-69
2022/10/25 13:42:37;;;;;;;;;;;;;;;;;;5112006;28;20293;-69
2022/10/25 13:45:02;;;;;;;;;;;;;;;;;;5076527;28;19931;-69
2022/10/25 13:47:29;;;;;;;;;;;;;;;;;;5112325;28;19955;-69
2022/10/25 13:49:54;;;;;;;;;;;;;;;;;;5095491;28;19927;-69
2022/10/25 13:52:20;;;;;;;;;;;;;;;;;;5092856;28;19919;-69
2022/10/25 13:54:47;;;;;;;;;;;;;;;;;;5072510;28;19920;-69
2022/10/25 13:57:12;;;;;;;;;;;;;;;;;;5091450;28;20420;-69
2022/10/25 13:59:38;;;;;;;;;;;;;;;;;;5073507;28;19967;-69
2022/10/25 14:02:04;;;;;;;;;;;;;;;;;;5055802;28;19999;-69
2022/10/25 14:04:30;;;;;;;;;;;;;;;;;;5059721;28;20320;-69
2022/10/25 14:06:57;;;;;;;;;;;;;;;;;;5056562;28;19920;-69
2022/10/25 14:09:23;;;;;;;;;;;;;;;;;;5071692;28;19946;-69
2022/10/25 14:11:48;;;;;;;;;;;;;;;;;;5073259;28;19924;-69
2022/10/25 14:14:14;;;;;;;;;;;;;;;;;;5066813;28;19916;-69
2022/10/25 14:16:40;;;;;;;;;;;;;;;;;;5059577;28;19927;-69
2022/10/25 14:19:06;;;;;;;;;;;;;;;;;;5071498;28;20389;-69
2022/10/25 14:21:32;;;;;;;;;;;;;;;;;;5069821;28;19929;-69
2022/10/25 14:23:58;;;;;;;;;;;;;;;;;;5052652;28;19921;-68
2022/10/25 14:26:24;;;;;;;;;;;;;;;;;;5067216;28;19971;-69
2022/10/25 14:28:50;;;;;;;;;;;;;;;;;;5115488;28;20397;-69
2022/10/25 14:31:16;;;;;;;;;;;;;;;;;;5097108;28;19920;-69
2022/10/25 14:33:42;;;;;;;;;;;;;;;;;;5115432;28;19946;-69
2022/10/25 14:36:08;;;;;;;;;;;;;;;;;;5073690;28;19921;-69
2022/10/25 14:38:33;;;;;;;;;;;;;;;;;;5073442;28;19932;-69
2022/10/25 14:40:59;;;;;;;;;;;;;;;;;;5073401;28;19920;-69
2022/10/25 14:43:25;;;;;;;;;;;;;;;;;;5074136;28;20362;-69
2022/10/25 14:45:51;;;;;;;;;;;;;;;;;;5072520;28;19920;-69
2022/10/25 14:48:17;;;;;;;;;;;;;;;;;;5059729;28;19975;-69
2022/10/25 14:50:43;;;;;;;;;;;;;;;;;;5094657;28;20408;-69
2022/10/25 14:53:09;;;;;;;;;;;;;;;;;;5075945;28;19967;-69
2022/10/25 14:55:35;;;;;;;;;;;;;;;;;;5075495;28;19920;-69
2022/10/25 14:58:01;;;;;;;;;;;;;;;;;;5076034;28;20015;-69
2022/10/25 15:00:27;;;;;;;;;;;;;;;;;;5107155;28;19962;-69
2022/10/25 15:02:53;;;;;;;;;;;;;;;;;;5114801;28;19998;-69
2022/10/25 15:05:19;;;;;;;;;;;;;;;;;;5113248;28;20006;-69
2022/10/25 15:07:50;;;;;;;;;;;;;;;;;;5042337;28;19974;-69
2022/10/25 15:10:16;;;;;;;;;;;;;;;;;;5076190;28;19927;-69
2022/10/25 15:12:42;;;;;;;;;;;;;;;;;;5076256;28;19920;-69
2022/10/25 15:15:07;;;;;;;;;;;;;;;;;;5075413;28;19924;-69
2022/10/25 15:17:33;;;;;;;;;;;;;;;;;;5059156;28;20389;-69
2022/10/25 15:19:59;;;;;;;;;;;;;;;;;;5098746;28;19920;-69
2022/10/25 15:22:25;;;;;;;;;;;;;;;;;;5095616;28;19992;-69
2022/10/25 15:24:51;;;;;;;;;;;;;;;;;;5078776;28;19999;-69
2022/10/25 15:27:17;;;;;;;;;;;;;;;;;;5095874;28;19926;-69
2022/10/25 15:29:44;;;;;;;;;;;;;;;;;;5096083;28;20411;-69
2022/10/25 15:32:10;;;;;;;;;;;;;;;;;;5096050;28;19920;-69
2022/10/25 15:34:35;;;;;;;;;;;;;;;;;;5113284;28;20307;-70
2022/10/25 15:37:01;;;;;;;;;;;;;;;;;;5093895;28;19924;-69
2022/10/25 15:39:27;;;;;;;;;;;;;;;;;;5095692;28;19973;-70
2022/10/25 15:41:53;;;;;;;;;;;;;;;;;;5078773;28;20389;-70
2022/10/25 15:44:19;;;;;;;;;;;;;;;;;;5091546;28;19929;-69
2022/10/25 15:46:45;;;;;;;;;;;;;;;;;;5065559;28;19920;-70
2022/10/25 15:49:11;;;;;;;;;;;;;;;;;;5065949;28;19969;-70
2022/10/25 15:51:37;;;;;;;;;;;;;;;;;;5065221;28;19969;-69
2022/10/25 15:54:03;;;;;;;;;;;;;;;;;;5057307;28;21055;-69
2022/10/25 15:56:29;;;;;;;;;;;;;;;;;;5055179;28;19927;-69
2022/10/25 15:58:57;;;;;;;;;;;;;;;;;;5055184;28;19924;-70
2022/10/25 16:01:23;;;;;;;;;;;;;;;;;;5054952;28;19925;-70
2022/10/25 16:03:49;;;;;;;;;;;;;;;;;;5070394;22;19931;-76
2022/10/25 16:06:15;;;;;;;;;;;;;;;;;;5072649;28;20401;-76
2022/10/25 16:08:41;;;;;;;;;;;;;;;;;;5055111;28;19971;-76
2022/10/25 16:11:07;;;;;;;;;;;;;;;;;;5053423;28;19920;-76
2022/10/25 16:13:32;;;;;;;;;;;;;;;;;;5035107;28;19928;-76
2022/10/25 16:15:58;;;;;;;;;;;;;;;;;;5052650;28;20390;-76
2022/10/25 16:18:24;;;;;;;;;;;;;;;;;;5017138;28;19925;-76
2022/10/25 16:20:50;;;;;;;;;;;;;;;;;;5035205;28;19921;-76
2022/10/25 16:23:17;;;;;;;;;;;;;;;;;;5034868;28;20383;-76
2022/10/25 16:25:43;;;;;;;;;;;;;;;;;;5034664;28;19960;-76
2022/10/25 16:28:09;;;;;;;;;;;;;;;;;;5034903;28;19974;-74
2022/10/25 16:30:35;;;;;;;;;;;;;;;;;;5034617;28;19924;-74
2022/10/25 16:33:01;;;;;;;;;;;;;;;;;;5037686;28;19920;-74